Time;durP1;ratioP1;P1;durP2;ratioP2;P2;SDS_P1;SDS_P2;PMS_P1;PMS_P2;Temp;Humidity;BMP_temperature;BMP_pressure;BME280_temperature;BME280_humidity;BME280_pressure;Samples;Min_cycle;Max_cycle;Signal;HPM_P1;HPM_P2
2022/03/05 00:01:42;;;;;;;7.37;5.22;;;;;;;9.55;40.52;100682.61;1786795;109;26428;-80
2022/03/05 00:09:22;;;;;;;7.67;5.65;;;;;;;9.52;40.48;100686.41;1803297;108;25751;-78
2022/03/05 00:20:51;;;;;;;5.05;4.12;;;;;;;9.49;40.46;100681.10;1840610;105;26679;-80
2022/03/05 00:24:57;;;;;;;;;;;;;;;;;;;;;
2022/03/05 00:28:14;;;;;;;6.50;4.10;;;;;;;9.46;40.35;100681.00;1830949;106;25963;-79
2022/03/05 00:31:58;;;;;;;5.83;3.98;;;;;;;9.44;40.30;100677.02;1825863;107;25872;-84
2022/03/05 00:35:43;;;;;;;4.65;2.90;;;;;;;9.43;40.28;100671.79;1801008;108;25904;-77
2022/03/05 00:43:47;;;;;;;6.17;3.60;;;;;;;9.39;40.19;100663.42;1782080;107;25925;-78
2022/03/05 00:48:17;;;;;;;5.50;3.70;;;;;;;9.38;40.17;100668.13;1701344;114;25902;-78
2022/03/05 00:52:26;;;;;;;;;;;;;;;;;;;;;
2022/03/05 01:04:13;;;;;;;3.08;2.77;;;;;;;9.33;40.02;100658.89;1672457;113;25989;-82
2022/03/05 01:08:41;;;;;;;;;;;;;;;;;;;;;
2022/03/05 01:12:39;;;;;;;3.58;2.60;;;;;;;9.28;39.91;100660.47;1606090;120;26008;-85
2022/03/05 01:16:34;;;;;;;;;;;;;;;9.27;39.88;100655.20;1601249;119;26159;-81
2022/03/05 01:34:06;;;;;;;3.83;2.40;;;;;;;9.21;39.71;100657.17;1790253;109;25935;-76
2022/03/05 01:58:52;;;;;;;3.08;2.15;;;;;;;9.17;39.49;100666.59;1823805;107;25808;-83
2022/03/05 02:06:34;;;;;;;2.77;2.33;;;;;;;9.17;39.42;100669.61;1787604;108;25902;-77
2022/03/05 02:10:48;;;;;;;3.35;2.40;;;;;;;9.17;39.36;100668.31;1823684;104;26210;-80
2022/03/05 02:31:18;;;;;;;;;;;;;;;;;;;;;
2022/03/05 02:50:01;;;;;;;2.80;1.93;;;;;;;9.08;39.22;100662.78;1805310;108;25951;-77
2022/03/05 02:57:40;;;;;;;3.35;2.47;;;;;;;9.06;39.20;100661.45;1763483;109;25805;-85
2022/03/05 03:04:58;;;;;;;3.12;1.95;;;;;;;9.05;39.17;100666.61;1846437;105;25820;-86
2022/03/05 03:16:39;;;;;;;3.50;2.50;;;;;;;9.04;39.14;100674.80;1739514;113;25849;-77
2022/03/05 03:20:42;;;;;;;2.55;1.80;;;;;;;9.03;39.10;100669.14;1726149;113;26024;-85
2022/03/05 03:24:17;;;;;;;;;;;;;;;;;;;;;
2022/03/05 03:41:37;;;;;;;2.45;2.05;;;;;;;9.00;38.99;100666.44;1783867;108;25852;-78
2022/03/05 03:58:37;;;;;;;3.25;2.22;;;;;;;8.96;38.96;100676.27;1680270;115;26016;-77
2022/03/05 04:23:45;;;;;;;5.75;1.90;;;;;;;8.87;38.91;100695.02;2421245;78;25954;-79
2022/03/05 04:27:58;;;;;;;3.33;1.87;;;;;;;8.87;38.90;100689.81;2347524;83;25766;-76
2022/03/05 04:31:24;;;;;;;1.80;1.17;;;;;;;8.86;38.88;100695.86;2345694;82;25825;-86
2022/03/05 04:35:18;;;;;;;;;;;;;;;;;;;;;
2022/03/05 04:39:01;;;;;;;2.75;1.62;;;;;;;8.85;38.88;100694.09;2232119;88;25791;-78
2022/03/05 04:42:54;;;;;;;2.37;1.55;;;;;;;8.84;38.90;100697.92;2228730;87;25759;-81
2022/03/05 04:50:38;;;;;;;2.45;1.75;;;;;;;8.83;38.88;100692.27;2082947;93;25408;-79
2022/03/05 04:54:30;;;;;;;;;;;;;;;;;;;;;
2022/03/05 04:58:13;;;;;;;;;;;;;;;;;;;;;
2022/03/05 05:01:57;;;;;;;2.02;1.57;;;;;;;8.81;38.85;100709.13;1906592;102;25909;-81
2022/03/05 05:10:28;;;;;;;;;;;;;;;;;;;;;
2022/03/05 05:22:34;;;;;;;;;;;;;;;;;;;;;
2022/03/05 05:26:21;;;;;;;;;;;;;;;8.73;38.80;100720.95;1863978;104;26090;-78
2022/03/05 05:30:04;;;;;;;2.33;1.60;;;;;;;8.71;38.81;100728.70;1882733;103;26002;-77
2022/03/05 05:34:04;;;;;;;;;;;;;;;;;;;;;
2022/03/05 05:38:03;;;;;;;;;;;;;;;;;;;;;
2022/03/05 05:45:52;;;;;;;2.25;1.40;;;;;;;8.70;38.81;100738.61;1873779;103;26047;-77
2022/03/05 05:56:29;;;;;;;;;;;;;;;;;;;;;
2022/03/05 06:00:10;;;;;;;1.27;1.10;;;;;;;8.72;38.78;100747.78;1867461;104;25870;-81
2022/03/05 06:04:06;;;;;;;2.60;1.30;;;;;;;8.73;38.75;100759.94;1825789;105;25877;-76
2022/03/05 06:07:50;;;;;;;3.33;1.75;;;;;;;8.73;38.73;100753.44;1821471;107;25916;-80
2022/03/05 06:15:34;;;;;;;1.32;1.05;;;;;;;8.74;38.69;100762.61;1784867;106;26357;-82
2022/03/05 06:19:43;;;;;;;;;;;;;;;;;;;;;
2022/03/05 06:23:14;;;;;;;2.15;1.37;;;;;;;8.80;38.67;100772.33;1762965;109;25829;-81
2022/03/05 06:34:55;;;;;;;2.83;1.40;;;;;;;8.88;38.62;100774.81;1889598;103;25852;-79
2022/03/05 06:50:15;;;;;;;2.42;1.80;;;;;;;8.99;38.50;100783.88;;;;
2022/03/05 07:10:57;;;;;;;2.05;1.75;;;;;;;9.24;38.39;100787.34;1955551;100;25992;-79
2022/03/05 07:14:50;;;;;;;;;;;;;;;;;;;;;
2022/03/05 07:18:22;;;;;;;1.67;1.30;;;;;;;9.41;38.48;100791.84;1954649;99;25801;-77
2022/03/05 07:22:07;;;;;;;2.17;1.57;;;;;;;9.50;38.73;100798.67;1955809;100;25927;-80
2022/03/05 07:30:20;;;;;;;1.90;1.67;;;;;;;9.67;38.65;100801.86;1762720;108;26069;-78
2022/03/05 07:34:05;;;;;;;2.92;2.33;;;;;;;9.75;38.54;100804.29;1770348;107;26101;-81
2022/03/05 07:41:49;;;;;;;;;;;;;;;;;;;;;
2022/03/05 08:01:38;;;;;;;2.72;1.87;;;;;;;10.18;38.39;100815.70;1745313;110;25825;-85
2022/03/05 08:05:01;;;;;;;2.77;2.08;;;;;;;10.48;37.95;100814.06;1718086;114;26654;-77
2022/03/05 08:08:22;;;;;;;2.20;1.87;;;;;;;10.63;37.77;100819.72;1717162;115;27208;-85
2022/03/05 08:12:02;;;;;;;;;;;;;;;;;;;;;
2022/03/05 08:15:36;;;;;;;3.33;2.10;;;;;;;10.96;37.44;100817.66;1668063;115;26035;-78
2022/03/05 08:19:11;;;;;;;2.83;1.47;;;;;;;11.17;37.23;100819.59;1681971;116;25898;-81
2022/03/05 08:22:43;;;;;;;2.27;1.80;;;;;;;11.38;37.00;100819.30;1691887;114;25861;-79
2022/03/05 08:26:19;;;;;;;2.92;2.02;;;;;;;11.52;36.79;100823.58;1727059;109;25891;-77
2022/03/05 08:33:40;;;;;;;2.95;2.62;;;;;;;11.73;36.56;100828.05;1789274;109;26020;-77
2022/03/05 08:37:30;;;;;;;;;;;;;;;;;;;;;
2022/03/05 08:44:58;;;;;;;2.75;2.00;;;;;;;12.32;36.06;100839.59;1767855;110;25839;-77
2022/03/05 08:48:45;;;;;;;2.90;1.95;;;;;;;12.51;35.89;100840.88;1801715;109;25868;-81
2022/03/05 09:08:42;;;;;;;2.72;2.20;;;;;;;12.94;35.32;100845.77;1805483;106;25900;-84
2022/03/05 09:12:15;;;;;;;2.05;1.65;;;;;;;13.03;35.31;100852.91;1759657;111;25934;-85
2022/03/05 09:16:18;;;;;;;3.87;1.82;;;;;;;13.03;35.22;100853.83;1720461;111;25934;-86
2022/03/05 09:19:59;;;;;;;2.45;1.95;;;;;;;13.01;35.27;100855.52;1729834;111;25947;-83
2022/03/05 09:28:12;;;;;;;2.02;1.82;;;;;;;12.91;35.31;100849.63;1749172;111;26086;-82
2022/03/05 09:31:59;;;;;;;5.27;1.77;;;;;;;12.83;35.33;100851.20;1715052;113;25909;-79
2022/03/05 09:35:33;;;;;;;3.10;1.80;;;;;;;12.78;35.33;100854.13;1675632;115;26097;-80
2022/03/05 09:39:09;;;;;;;2.77;1.62;;;;;;;12.71;35.36;100864.45;1667982;117;25932;-84
2022/03/05 09:42:54;;;;;;;2.60;2.37;;;;;;;12.63;35.40;100862.10;1670094;115;25880;-81
2022/03/05 09:49:50;;;;;;;1.40;1.30;;;;;;;12.49;35.44;100863.09;1668442;116;31255;-81
2022/03/05 09:53:32;;;;;;;2.47;1.50;;;;;;;12.44;35.51;100872.97;1693711;113;26206;-77
2022/03/05 09:56:50;;;;;;;2.08;1.75;;;;;;;12.36;35.54;100862.34;1734404;109;25951;-81
2022/03/05 10:00:29;;;;;;;4.12;1.77;;;;;;;12.31;36.67;100873.09;1776970;111;25902;-79
2022/03/05 10:04:01;;;;;;;1.50;1.02;;;;;;;12.36;36.94;100875.41;1745165;109;26219;-78
2022/03/05 10:07:24;;;;;;;4.65;1.30;;;;;;;12.34;37.06;100874.91;1690338;116;25841;-76
2022/03/05 10:10:52;;;;;;;1.45;1.10;;;;;;;12.28;37.21;100880.47;1702883;114;25928;-80
2022/03/05 10:14:26;;;;;;;1.70;1.17;;;;;;;12.22;37.12;100881.61;1702182;111;25906;-82
2022/03/05 10:18:13;;;;;;;;;;;;;;;12.16;37.00;100881.45;1692795;116;26136;-79
2022/03/05 10:21:36;;;;;;;1.82;1.35;;;;;;;12.11;37.00;100880.87;1706544;112;25903;-78
2022/03/05 10:25:16;;;;;;;3.02;1.57;;;;;;;12.04;36.97;100884.63;1743860;112;25621;-82
2022/03/05 10:28:44;;;;;;;2.95;1.20;;;;;;;11.99;36.91;100878.84;1732284;112;26716;-80
2022/03/05 10:32:18;;;;;;;4.10;1.20;;;;;;;11.97;38.94;100882.70;1733571;110;26617;-81
2022/03/05 10:35:51;;;;;;;2.83;1.10;;;;;;;12.09;40.07;100881.27;1733983;110;25963;-81
2022/03/05 10:39:17;;;;;;;3.17;1.27;;;;;;;12.04;39.96;100887.23;1741513;111;26869;-80
2022/03/05 10:42:52;;;;;;;1.82;1.27;;;;;;;11.99;39.83;100890.59;1758812;109;25849;-81
2022/03/05 10:46:29;;;;;;;1.25;1.12;;;;;;;11.93;39.78;100888.70;1801807;108;26530;-82
2022/03/05 10:49:59;;;;;;;1.85;1.20;;;;;;;11.89;39.69;100889.89;1808462;106;25899;-79
2022/03/05 10:53:45;;;;;;;1.72;1.20;;;;;;;11.83;39.55;100889.27;1898071;101;26067;-79
2022/03/05 11:01:04;;;;;;;1.80;1.40;;;;;;;11.77;39.12;100884.75;1882494;100;25993;-80
2022/03/05 11:05:01;;;;;;;2.00;1.37;;;;;;;11.75;39.03;100891.69;1875314;104;26195;-80
2022/03/05 11:08:38;;;;;;;1.55;0.90;;;;;;;11.73;38.79;100884.64;1871807;104;25913;-81
2022/03/05 11:12:07;;;;;;;1.32;1.20;;;;;;;11.71;38.62;100886.31;1869813;104;25893;-81
2022/03/05 11:15:46;;;;;;;;;;;;;;;;;;;;;
2022/03/05 11:23:02;;;;;;;1.67;1.02;;;;;;;11.67;38.31;100880.55;1761542;110;25936;-82
2022/03/05 11:30:11;;;;;;;1.85;1.15;;;;;;;11.63;38.08;100880.02;1728869;113;26092;-79
2022/03/05 11:33:38;;;;;;;0.82;0.62;;;;;;;11.61;38.05;100873.45;1716145;113;25924;-81
2022/03/05 11:37:10;;;;;;;3.17;0.93;;;;;;;11.63;39.45;100874.36;1716052;113;25880;-83
2022/03/05 11:40:46;;;;;;;1.07;0.98;;;;;;;11.80;39.47;100868.28;1708572;111;25876;-84
2022/03/05 11:44:18;;;;;;;1.80;0.93;;;;;;;11.86;39.37;100867.61;1695508;115;26019;-84
2022/03/05 11:48:05;;;;;;;2.33;1.02;;;;;;;11.86;39.14;100872.83;1693908;115;25853;-82
2022/03/05 11:51:44;;;;;;;1.12;0.80;;;;;;;11.86;39.11;100862.38;1694100;115;25890;-88
2022/03/05 11:55:26;;;;;;;1.42;1.00;;;;;;;11.87;38.79;100864.14;1692262;115;26072;-83
2022/03/05 11:58:57;;;;;;;3.92;1.00;;;;;;;11.86;38.57;100860.65;1693159;116;25942;-85
2022/03/05 12:06:27;;;;;;;1.60;1.00;;;;;;;11.89;38.29;100864.65;1719895;112;25906;-87
2022/03/05 12:10:03;;;;;;;1.90;0.93;;;;;;;11.91;38.31;100865.98;1722603;113;25521;-83
2022/03/05 12:13:38;;;;;;;1.45;0.90;;;;;;;11.92;38.11;100867.77;1741312;112;26374;-84
2022/03/05 12:17:09;;;;;;;3.33;0.88;;;;;;;11.91;38.13;100862.94;1656767;115;26578;-85
2022/03/05 12:21:13;;;;;;;1.07;0.97;;;;;;;11.92;37.83;100858.62;1636359;117;26213;-88
2022/03/05 12:24:43;;;;;;;2.42;1.10;;;;;;;11.95;37.72;100862.20;1606857;122;26000;-76
2022/03/05 12:28:25;;;;;;;4.78;3.12;;;;;;;11.97;37.60;100860.92;1582955;123;25987;-84
2022/03/05 12:31:59;;;;;;;5.03;2.45;;;;;;;12.32;43.88;100855.67;1582480;120;26189;-83
2022/03/05 12:35:35;;;;;;;2.27;2.08;;;;;;;12.43;44.25;100859.45;1588837;123;26045;-83
2022/03/05 12:39:13;;;;;;;3.47;2.42;;;;;;;12.44;44.33;100853.36;1599245;122;26794;-87
2022/03/05 12:42:54;;;;;;;4.12;2.05;;;;;;;12.43;44.35;100852.48;1586661;118;25876;-85
2022/03/05 12:46:33;;;;;;;2.45;2.20;;;;;;;12.45;44.09;100849.88;1607240;121;25750;-87
2022/03/05 12:50:05;;;;;;;3.45;2.02;;;;;;;12.45;43.65;100846.87;1587755;123;26126;-83
2022/03/05 12:53:28;;;;;;;2.77;1.92;;;;;;;12.45;43.26;100848.19;1674099;112;25915;-82
2022/03/05 12:57:14;;;;;;;2.35;1.55;;;;;;;12.46;43.02;100850.37;1737701;111;25822;-74
2022/03/05 13:04:17;;;;;;;3.70;1.80;;;;;;;12.47;42.26;100846.47;1747821;111;26020;-76
2022/03/05 13:08:12;;;;;;;2.27;2.05;;;;;;;12.50;41.88;100848.28;1767782;110;26083;-73
2022/03/05 13:11:35;;;;;;;3.05;1.80;;;;;;;12.52;41.51;100843.55;1754345;110;25817;-80
2022/03/05 13:15:14;;;;;;;2.05;1.77;;;;;;;12.59;41.21;100846.28;1769244;111;31043;-87
2022/03/05 13:18:39;;;;;;;1.82;1.47;;;;;;;12.65;40.89;100851.23;1769071;109;25779;-84
2022/03/05 13:22:10;;;;;;;1.37;1.27;;;;;;;12.72;40.57;100845.31;1769704;111;25944;-81
2022/03/05 13:25:58;;;;;;;3.02;1.72;;;;;;;12.79;40.33;100848.04;1769639;111;25974;-84
2022/03/05 13:29:51;;;;;;;2.65;1.55;;;;;;;12.87;40.11;100844.75;1764866;110;26140;-82
2022/03/05 13:33:22;;;;;;;2.23;1.63;;;;;;;13.16;39.71;100841.45;1768817;110;25831;-89
2022/03/05 13:37:16;;;;;;;1.60;1.45;;;;;;;13.32;39.41;100843.08;1758265;111;25840;-83
2022/03/05 13:40:55;;;;;;;4.60;1.57;;;;;;;13.59;39.17;100848.84;1740214;110;25846;-83
2022/03/05 13:44:59;;;;;;;3.90;1.90;;;;;;;14.06;38.70;100843.56;1719534;113;25968;-90
2022/03/05 13:49:12;;;;;;;;;;;;;;;;;;;;;
2022/03/05 13:53:22;;;;;;;;;;;;;;;;;;;;;
2022/03/05 13:57:04;;;;;;;3.10;2.42;;;;;;;14.69;42.10;100851.14;1694650;113;25925;-88
2022/03/05 14:00:52;;;;;;;5.50;2.00;;;;;;;14.98;42.57;100848.90;1689445;113;25929;-86
2022/03/05 14:29:37;;;;;;;2.58;1.65;;;;;;;14.96;32.79;100855.02;1735048;113;25440;-94
2022/03/05 14:33:16;;;;;;;2.33;1.65;;;;;;;14.44;31.64;100853.78;1706018;114;25889;-83
2022/03/05 14:36:53;;;;;;;;;;;;;;;;;;;;;
2022/03/05 14:40:16;;;;;;;2.25;1.32;;;;;;;14.11;33.21;100865.52;1758282;109;25879;-86
2022/03/05 14:43:39;;;;;;;2.62;1.47;;;;;;;13.87;33.68;100863.76;1763633;110;26165;-82
2022/03/05 14:47:00;;;;;;;1.57;1.47;;;;;;;13.70;33.46;100869.60;1782960;108;25356;-80
2022/03/05 14:50:25;;;;;;;2.12;1.27;;;;;;;13.60;33.27;100868.97;1783809;109;31192;-82
2022/03/05 14:53:49;;;;;;;1.82;1.27;;;;;;;13.52;33.08;100874.47;1796211;109;26645;-77
2022/03/05 14:57:29;;;;;;;1.70;1.00;;;;;;;13.40;32.76;100871.63;1779379;109;25979;-81
2022/03/05 15:00:41;;;;;;;3.50;1.22;;;;;;;13.27;32.56;100863.95;1779971;108;25841;-83
2022/03/05 15:04:02;;;;;;;1.55;1.10;;;;;;;13.16;32.27;100866.72;1779486;111;30952;-83
2022/03/05 15:07:23;;;;;;;1.87;1.30;;;;;;;13.04;32.15;100872.59;1797796;108;25912;-75
2022/03/05 15:10:46;;;;;;;1.72;1.22;;;;;;;12.91;31.93;100867.52;1801501;109;31753;-77
2022/03/05 15:14:07;;;;;;;1.90;1.60;;;;;;;12.79;31.78;100867.66;1833297;105;25928;-76
2022/03/05 15:17:30;;;;;;;1.90;1.47;;;;;;;12.69;31.66;100874.02;1862626;104;31432;-80
2022/03/05 15:20:53;;;;;;;2.10;1.82;;;;;;;12.57;31.59;100871.11;1874084;105;25912;-73
2022/03/05 15:24:23;;;;;;;3.27;1.87;;;;;;;12.45;31.53;100873.42;1873894;105;26045;-86
2022/03/05 15:27:44;;;;;;;2.20;1.55;;;;;;;12.35;31.54;100884.11;1874052;105;25817;-87
2022/03/05 15:31:09;;;;;;;1.55;1.27;;;;;;;12.27;31.54;100881.71;1873974;104;30999;-85
2022/03/05 15:34:30;;;;;;;1.98;1.05;;;;;;;12.21;31.61;100889.40;1899680;102;26087;-80
2022/03/05 15:37:52;;;;;;;1.65;1.55;;;;;;;12.14;31.68;100880.95;1921083;102;30936;-86
2022/03/05 15:41:15;;;;;;;4.12;1.70;;;;;;;12.04;31.72;100882.02;1922544;100;25831;-88
2022/03/05 15:44:40;;;;;;;5.03;1.60;;;;;;;11.95;31.78;100874.39;1916342;101;25687;-86
2022/03/05 15:48:01;;;;;;;3.83;1.75;;;;;;;11.83;31.68;100878.39;1916344;103;25762;-82
2022/03/05 15:51:24;;;;;;;2.42;1.90;;;;;;;11.69;31.63;100881.49;1916375;101;31050;-83
2022/03/05 15:54:45;;;;;;;1.90;1.70;;;;;;;11.61;31.60;100879.98;1916536;103;26040;-80
2022/03/05 15:58:07;;;;;;;1.75;1.25;;;;;;;11.61;31.72;100890.83;1916680;103;31385;-78
2022/03/05 16:01:35;;;;;;;3.25;1.42;;;;;;;11.57;31.81;100887.25;1916558;102;25927;-81
2022/03/05 16:04:56;;;;;;;3.02;1.50;;;;;;;11.53;31.97;100888.02;1916158;103;25828;-83
2022/03/05 16:08:23;;;;;;;2.53;1.70;;;;;;;11.49;32.17;100885.73;1916597;103;29067;-82
2022/03/05 16:11:48;;;;;;;3.43;1.37;;;;;;;11.45;32.28;100888.23;1883794;103;25806;-82
2022/03/05 16:15:09;;;;;;;2.05;1.30;;;;;;;11.39;32.46;100883.71;1916172;103;25819;-77
2022/03/05 16:18:30;;;;;;;1.85;1.42;;;;;;;11.32;32.61;100890.48;1916494;102;25988;-86
2022/03/05 16:21:51;;;;;;;2.62;1.90;;;;;;;11.26;32.70;100887.69;1916929;103;30652;-78
2022/03/05 16:25:15;;;;;;;1.98;1.70;;;;;;;11.18;32.86;100883.11;1936531;98;25981;-79
2022/03/05 16:28:35;;;;;;;1.95;1.37;;;;;;;11.14;32.96;100895.19;1962440;99;25954;-78
2022/03/05 16:32:01;;;;;;;1.80;1.32;;;;;;;11.08;33.04;100901.52;1962411;98;25922;-74
2022/03/05 16:35:28;;;;;;;2.05;1.60;;;;;;;11.02;33.16;100898.72;1980830;96;25787;-73
2022/03/05 16:38:52;;;;;;;3.25;1.80;;;;;;;10.95;33.24;100900.27;2020210;97;25829;-78
2022/03/05 16:42:16;;;;;;;1.75;1.35;;;;;;;10.89;33.38;100902.67;2019960;96;25814;-73
2022/03/05 16:45:37;;;;;;;2.35;1.60;;;;;;;10.83;33.42;100898.56;1984819;97;25864;-80
2022/03/05 16:49:00;;;;;;;1.65;1.27;;;;;;;10.77;33.52;100903.62;2020530;96;28086;-81
2022/03/05 16:52:29;;;;;;;4.25;1.75;;;;;;;10.71;33.58;100906.03;2020759;97;25913;-75
2022/03/05 16:55:54;;;;;;;5.00;2.05;;;;;;;10.64;33.62;100906.27;2019901;97;25731;-78
2022/03/05 16:59:19;;;;;;;3.85;1.70;;;;;;;10.58;33.70;100908.24;2032364;96;25981;-76
2022/03/05 17:02:53;;;;;;;2.00;1.80;;;;;;;10.52;33.75;100907.16;2032301;96;25799;-73
2022/03/05 17:06:16;;;;;;;1.32;1.20;;;;;;;10.46;33.81;100909.56;2081451;92;25833;-76
2022/03/05 17:09:44;;;;;;;2.15;1.57;;;;;;;10.40;33.87;100913.76;2058489;94;25845;-75
2022/03/05 17:13:33;;;;;;;2.33;1.32;;;;;;;10.36;33.89;100909.29;2040514;95;27637;-74
2022/03/05 17:17:09;;;;;;;2.98;1.47;;;;;;;10.31;33.97;100912.14;2042101;95;25922;-74
2022/03/05 17:20:31;;;;;;;2.55;1.37;;;;;;;10.26;34.07;100909.82;2041461;96;25775;-80
2022/03/05 17:23:57;;;;;;;1.77;1.50;;;;;;;10.22;34.08;100905.28;2043058;94;29163;-75
2022/03/05 17:27:18;;;;;;;1.85;1.35;;;;;;;10.18;34.12;100904.72;2047114;95;25858;-78
2022/03/05 17:30:41;;;;;;;1.65;1.55;;;;;;;10.14;34.14;100904.16;2046198;96;25757;-75
2022/03/05 17:34:04;;;;;;;2.00;1.50;;;;;;;10.11;34.19;100908.83;2046968;96;27691;-83
2022/03/05 17:37:29;;;;;;;2.83;1.40;;;;;;;10.07;34.22;100909.57;2043962;96;25910;-83
2022/03/05 17:40:50;;;;;;;2.60;2.08;;;;;;;10.06;34.24;100914.74;2027946;93;25818;-81
2022/03/05 17:44:16;;;;;;;1.80;1.20;;;;;;;10.04;34.28;100910.77;2045971;96;25811;-81
2022/03/05 17:47:37;;;;;;;3.12;2.00;;;;;;;10.01;34.29;100913.27;2047118;96;25804;-77
2022/03/05 17:51:04;;;;;;;1.80;1.27;;;;;;;9.98;34.33;100909.67;2011039;96;25904;-76
2022/03/05 17:54:29;;;;;;;1.92;1.72;;;;;;;9.96;34.33;100909.62;2028701;96;25828;-79
2022/03/05 17:57:52;;;;;;;1.57;1.47;;;;;;;9.93;34.36;100908.22;2029483;96;25705;-72
2022/03/05 18:01:15;;;;;;;1.75;1.40;;;;;;;9.91;34.40;100914.66;2029275;96;25803;-78
2022/03/05 18:04:36;;;;;;;3.17;1.70;;;;;;;9.89;34.38;100916.34;2028070;96;27187;-73
2022/03/05 18:07:57;;;;;;;2.12;1.45;;;;;;;9.86;34.40;100921.44;2049255;93;25927;-76
2022/03/05 18:11:26;;;;;;;4.60;2.77;;;;;;;9.85;34.44;100920.95;2091508;94;27210;-71
2022/03/05 18:14:55;;;;;;;2.55;1.92;;;;;;;9.83;34.44;100921.75;2091662;93;25802;-77
2022/03/05 18:18:19;;;;;;;1.77;1.55;;;;;;;9.81;34.45;100922.98;2091634;93;25947;-74
2022/03/05 18:21:40;;;;;;;2.65;1.70;;;;;;;9.80;34.48;100928.16;2108033;93;25680;-72
2022/03/05 18:25:05;;;;;;;2.20;1.70;;;;;;;9.78;34.46;100927.20;2108160;93;25782;-74
2022/03/05 18:28:26;;;;;;;1.70;1.60;;;;;;;9.77;34.50;100927.63;2108314;93;25746;-73
2022/03/05 18:31:58;;;;;;;2.20;1.60;;;;;;;9.75;34.50;100930.99;2089394;93;25794;-73
2022/03/05 18:35:23;;;;;;;2.55;2.02;;;;;;;9.73;34.51;100932.25;2070388;94;25994;-80
2022/03/05 18:38:48;;;;;;;2.08;1.80;;;;;;;9.72;34.54;100937.39;2073027;95;25742;-72
2022/03/05 18:42:09;;;;;;;2.35;1.87;;;;;;;9.69;34.53;100929.08;2108112;93;25740;-77
2022/03/05 18:45:30;;;;;;;3.00;1.90;;;;;;;9.68;34.54;100933.38;2108099;93;25763;-79
2022/03/05 18:48:53;;;;;;;2.20;2.00;;;;;;;9.68;34.58;100931.19;2107766;92;25746;-79
2022/03/05 18:52:15;;;;;;;3.65;2.15;;;;;;;9.66;34.56;100936.36;2088863;93;25751;-80
2022/03/05 18:55:41;;;;;;;2.60;1.87;;;;;;;9.65;34.58;100931.08;2030573;95;25889;-77
2022/03/05 18:59:04;;;;;;;2.70;2.05;;;;;;;9.64;34.60;100931.91;2043693;95;25753;-76
2022/03/05 19:02:28;;;;;;;2.77;1.75;;;;;;;9.62;34.60;100933.18;2108343;93;25827;-72
2022/03/05 19:05:51;;;;;;;4.58;2.62;;;;;;;9.60;34.59;100932.22;2108102;93;25724;-75
2022/03/05 19:09:13;;;;;;;2.35;2.15;;;;;;;9.60;34.56;100933.52;2108428;93;25824;-75
2022/03/05 19:12:37;;;;;;;2.00;1.82;;;;;;;9.59;34.56;100934.37;2072676;94;25784;-78
2022/03/05 19:15:58;;;;;;;2.50;2.05;;;;;;;9.57;34.56;100938.62;2085945;93;25744;-73
2022/03/05 19:19:20;;;;;;;4.60;2.45;;;;;;;9.56;34.55;100933.38;2108105;93;25681;-80
2022/03/05 19:22:49;;;;;;;2.15;1.92;;;;;;;9.55;34.57;100937.70;2107134;93;25741;-74
2022/03/05 19:26:21;;;;;;;2.45;1.82;;;;;;;9.53;34.56;100932.84;2107051;93;25772;-77
2022/03/05 19:30:06;;;;;;;;;;;;;;;;;;;;;
2022/03/05 19:33:29;;;;;;;2.65;1.45;;;;;;;9.50;34.54;100936.62;2106390;93;25825;-75
2022/03/05 19:36:57;;;;;;;2.20;1.70;;;;;;;9.49;34.54;100937.88;2052605;95;45231;-75
2022/03/05 19:40:28;;;;;;;1.87;1.52;;;;;;;9.46;34.48;100937.34;2106783;92;25876;-73
2022/03/05 19:43:51;;;;;;;3.00;1.87;;;;;;;9.44;34.50;100942.48;2073116;93;25851;-75
2022/03/05 19:47:25;;;;;;;3.37;1.57;;;;;;;9.41;34.47;100946.27;2091588;93;25773;-77
2022/03/05 19:50:54;;;;;;;2.35;2.05;;;;;;;9.39;34.43;100949.67;2074043;93;26052;-75
2022/03/05 19:54:21;;;;;;;2.50;1.42;;;;;;;9.37;34.42;100948.29;2091637;93;25733;-74
2022/03/05 19:57:52;;;;;;;1.87;1.30;;;;;;;9.34;34.43;100954.67;2091718;94;25710;-74
2022/03/05 20:01:16;;;;;;;2.37;1.75;;;;;;;9.34;34.43;100955.09;2060938;93;25348;-75
2022/03/05 20:04:40;;;;;;;2.20;1.62;;;;;;;9.31;34.43;100941.55;2042398;94;26406;-74
2022/03/05 20:08:11;;;;;;;1.72;1.50;;;;;;;9.31;34.48;100947.17;2028048;95;25959;-73
2022/03/05 20:11:48;;;;;;;3.27;1.57;;;;;;;9.28;34.50;100936.26;2028163;96;26037;-75
2022/03/05 20:15:22;;;;;;;1.87;1.37;;;;;;;9.29;34.50;100942.34;2057861;94;25775;-78
2022/03/05 20:18:46;;;;;;;2.33;1.80;;;;;;;9.28;34.50;100944.45;1993448;98;26097;-79
2022/03/05 20:22:07;;;;;;;2.83;2.02;;;;;;;9.27;34.50;100940.97;2061127;94;25914;-75
2022/03/05 20:25:32;;;;;;;3.65;1.52;;;;;;;9.27;34.50;100942.69;2060977;93;25782;-75
2022/03/05 20:29:04;;;;;;;2.47;1.87;;;;;;;9.27;34.49;100943.98;2060959;94;25872;-77
2022/03/05 20:32:40;;;;;;;2.37;1.80;;;;;;;9.26;34.50;100941.80;2027506;96;25793;-73
2022/03/05 20:36:11;;;;;;;3.08;2.77;;;;;;;9.25;34.47;100940.05;2076321;92;25744;-74
2022/03/05 20:39:42;;;;;;;2.50;2.15;;;;;;;9.25;34.49;100941.73;2076827;93;25861;-74
2022/03/05 20:43:12;;;;;;;2.17;1.98;;;;;;;9.24;34.47;100942.15;2073286;93;26516;-77
2022/03/05 20:46:38;;;;;;;3.75;2.25;;;;;;;9.22;34.47;100940.80;2058482;93;26642;-73
2022/03/05 20:50:19;;;;;;;2.93;2.07;;;;;;;9.22;34.44;100932.12;2058355;94;25356;-75
2022/03/05 20:53:47;;;;;;;2.33;2.05;;;;;;;9.21;34.46;100933.84;2057051;93;25907;-77
2022/03/05 20:57:24;;;;;;;4.60;2.55;;;;;;;9.20;34.44;100935.06;2040824;95;25409;-76
2022/03/05 21:00:51;;;;;;;3.52;2.42;;;;;;;9.19;34.42;100938.50;2041303;95;31963;-77
2022/03/05 21:04:28;;;;;;;2.35;1.90;;;;;;;9.19;34.38;100945.01;2041262;95;25781;-76
2022/03/05 21:07:57;;;;;;;2.72;2.00;;;;;;;9.16;34.39;100945.77;2040395;95;25330;-76
2022/03/05 21:15:03;;;;;;;3.58;2.47;;;;;;;9.16;34.43;100939.69;2011848;96;25805;-74
2022/03/05 21:18:35;;;;;;;4.17;2.40;;;;;;;9.15;34.37;100940.52;1993852;96;25785;-73
2022/03/05 21:22:06;;;;;;;2.22;2.02;;;;;;;9.15;34.35;100943.13;1993449;97;26138;-72
2022/03/05 21:25:39;;;;;;;3.02;2.30;;;;;;;9.14;34.39;100943.93;1964555;99;26558;-76
2022/03/05 21:29:12;;;;;;;3.50;2.22;;;;;;;9.14;34.40;100943.93;1993408;97;25892;-80
2022/03/05 21:32:44;;;;;;;4.50;2.47;;;;;;;9.14;34.37;100945.23;1993627;97;25808;-79
2022/03/05 21:36:12;;;;;;;2.50;2.30;;;;;;;9.12;34.38;100941.28;1958225;98;25774;-74
2022/03/05 21:39:44;;;;;;;2.55;2.35;;;;;;;9.12;34.36;100937.80;1991277;97;26360;-77
2022/03/05 21:43:24;;;;;;;3.20;2.90;;;;;;;9.12;34.33;100939.10;1990440;97;25860;-74
2022/03/05 21:46:45;;;;;;;3.15;2.40;;;;;;;9.09;34.30;100938.98;1938469;100;26364;-74
2022/03/05 21:50:22;;;;;;;2.60;2.40;;;;;;;9.11;34.31;100946.41;1964151;99;25917;-78
2022/03/05 21:53:45;;;;;;;4.35;2.60;;;;;;;9.09;34.33;100940.28;1977082;97;26034;-76
2022/03/05 21:57:25;;;;;;;4.58;2.47;;;;;;;9.08;34.29;100938.48;2005344;95;25895;-81
2022/03/05 22:01:10;;;;;;;;;;;;;;;;;;;;;
2022/03/05 22:04:25;;;;;;;2.70;2.45;;;;;;;9.06;34.30;100936.26;2037807;96;25924;-77
2022/03/05 22:08:00;;;;;;;2.47;2.27;;;;;;;9.04;34.31;100937.90;2095184;93;25842;-76
2022/03/05 22:11:36;;;;;;;2.75;2.35;;;;;;;9.02;34.30;100935.25;2170093;86;25741;-78
2022/03/05 22:15:08;;;;;;;3.37;2.75;;;;;;;9.02;34.30;100938.28;2235099;86;25821;-81
2022/03/05 22:18:24;;;;;;;2.60;2.40;;;;;;;9.01;34.27;100938.69;2225971;86;25819;-82
2022/03/05 22:21:49;;;;;;;4.72;2.65;;;;;;;9.02;34.33;100938.28;2289689;85;25651;-81
2022/03/05 22:25:15;;;;;;;3.67;3.15;;;;;;;8.99;34.31;100931.23;2290784;85;25708;-79
2022/03/05 22:29:00;;;;;;;2.90;2.70;;;;;;;8.99;34.35;100932.53;2289596;86;25269;-81
2022/03/05 22:32:17;;;;;;;4.47;2.30;;;;;;;8.98;34.34;100923.84;2284635;86;26377;-82
2022/03/05 22:35:48;;;;;;;2.60;2.40;;;;;;;8.99;34.37;100922.13;2343509;83;25727;-81
2022/03/05 22:39:31;;;;;;;;;;;;;;;;;;;;;
2022/03/05 22:42:57;;;;;;;3.20;2.90;;;;;;;8.98;34.39;100921.67;2228725;87;25781;-83
2022/03/05 22:46:36;;;;;;;2.93;2.10;;;;;;;8.98;34.41;100917.77;2232511;85;25721;-82
2022/03/05 22:50:09;;;;;;;2.67;2.15;;;;;;;8.98;34.43;100921.25;2158637;90;25730;-81
2022/03/05 22:53:46;;;;;;;3.25;2.70;;;;;;;8.98;34.42;100920.37;2134597;89;25795;-80
2022/03/05 23:01:27;;;;;;;3.92;2.92;;;;;;;8.97;34.44;100919.45;2023874;96;26335;-80